createdAt,value
2018-01-14T00:00:55.622Z,28.87
2018-01-14T00:03:23.769Z,26.62
2018-01-14T00:05:52.797Z,27.70
2018-01-14T00:08:20.961Z,25.55
2018-01-14T00:10:57.401Z,32.85
2018-01-14T00:13:26.336Z,28.80
2018-01-14T00:15:58.374Z,33.72
2018-01-14T00:18:26.612Z,30.08
2018-01-14T00:20:56.784Z,27.65
2018-01-14T00:23:24.959Z,29.60
2018-01-14T00:25:53.630Z,28.30
2018-01-14T00:28:21.799Z,27.87
2018-01-14T00:30:50.088Z,28.08
2018-01-14T00:33:18.279Z,31.58
2018-01-14T00:35:46.442Z,27.17
2018-01-14T00:38:14.634Z,28.85
2018-01-14T00:40:49.873Z,27.02
2018-01-14T00:43:19.064Z,31.05
2018-01-14T00:45:48.014Z,28.87
2018-01-14T00:48:16.710Z,28.17
2018-01-14T00:50:45.735Z,30.48
2018-01-14T00:53:13.922Z,26.40
2018-01-14T00:55:42.124Z,31.90
2018-01-14T00:58:13.147Z,28.52
2018-01-14T01:00:44.726Z,22.92
2018-01-14T01:03:23.293Z,25.85
2018-01-14T01:05:52.242Z,22.60
2018-01-14T01:08:20.542Z,26.37
2018-01-14T01:10:48.736Z,31.25
2018-01-14T01:13:17.527Z,24.02
2018-01-14T01:15:47.071Z,30.35
2018-01-14T01:18:16.180Z,29.17
2018-01-14T01:20:49.209Z,24.05
2018-01-14T01:23:23.296Z,28.40
2018-01-14T01:25:51.465Z,29.85
2018-01-14T01:28:21.333Z,30.33
2018-01-14T01:30:52.768Z,25.05
2018-01-14T01:33:21.025Z,26.52
2018-01-14T01:35:49.189Z,26.87
2018-01-14T01:38:18.594Z,27.50
2018-01-14T01:40:46.876Z,21.50
2018-01-14T01:43:15.050Z,25.85
2018-01-14T01:45:43.809Z,25.83
2018-01-14T01:48:11.984Z,34.15
2018-01-14T01:50:40.210Z,28.12
2018-01-14T01:53:08.402Z,26.27
2018-01-14T01:55:36.905Z,32.10
2018-01-14T01:58:05.655Z,29.42
2018-01-14T02:00:34.012Z,23.40
2018-01-14T02:03:02.190Z,24.85
2018-01-14T02:05:30.357Z,26.92
2018-01-14T02:07:59.126Z,27.65
2018-01-14T02:10:34.876Z,21.48
2018-01-14T02:13:03.087Z,24.25
2018-01-14T02:15:31.254Z,24.45
2018-01-14T02:17:59.425Z,23.30
2018-01-14T02:20:27.704Z,24.73
2018-01-14T02:22:56.781Z,24.85
2018-01-14T02:25:25.671Z,23.15
2018-01-14T02:27:54.724Z,27.45
2018-01-14T02:30:23.325Z,22.87
2018-01-14T02:32:51.493Z,25.95
2018-01-14T02:35:19.664Z,27.50
2018-01-14T02:37:47.841Z,25.80
2018-01-14T02:40:16.023Z,22.50
2018-01-14T02:42:44.198Z,21.85
2018-01-14T02:45:12.374Z,22.55
2018-01-14T02:47:40.532Z,32.33
2018-01-14T02:50:14.673Z,29.15
2018-01-14T02:52:43.609Z,25.45
2018-01-14T02:55:16.180Z,30.98
2018-01-14T02:57:44.367Z,25.67
2018-01-14T03:00:15.981Z,23.27
2018-01-14T03:02:45.685Z,22.83
2018-01-14T03:05:14.609Z,23.10
2018-01-14T03:07:42.804Z,23.30
2018-01-14T03:10:11.058Z,31.30
2018-01-14T03:12:39.206Z,27.35
2018-01-14T03:15:08.143Z,29.73
2018-01-14T03:17:36.659Z,26.65
2018-01-14T03:20:09.368Z,27.05
2018-01-14T03:22:38.434Z,24.73
2018-01-14T03:25:06.592Z,24.77
2018-01-14T03:27:34.754Z,25.45
2018-01-14T03:30:03.156Z,25.23
2018-01-14T03:32:31.309Z,27.52
2018-01-14T03:34:59.472Z,29.05
2018-01-14T03:37:27.643Z,26.25
2018-01-14T03:39:55.856Z,24.10
2018-01-14T03:42:24.012Z,27.45
2018-01-14T03:44:52.196Z,27.42
2018-01-14T03:47:20.632Z,24.30
2018-01-14T03:49:48.796Z,30.83
2018-01-14T03:52:16.954Z,32.78
2018-01-14T03:54:45.105Z,27.42
2018-01-14T03:57:13.286Z,29.77
2018-01-14T03:59:41.441Z,29.73
2018-01-14T04:02:11.081Z,31.08
2018-01-14T04:04:40.000Z,27.30
2018-01-14T04:07:08.942Z,25.55
2018-01-14T04:09:37.112Z,24.87
2018-01-14T04:12:05.289Z,31.25
2018-01-14T04:14:33.455Z,23.38
2018-01-14T04:17:01.613Z,23.25
2018-01-14T04:19:32.532Z,22.40
2018-01-14T04:22:04.388Z,25.45
2018-01-14T04:24:32.658Z,28.27
2018-01-14T04:27:00.825Z,29.70
2018-01-14T04:29:29.263Z,26.95
2018-01-14T04:31:58.474Z,26.48
2018-01-14T04:34:26.640Z,23.23
2018-01-14T04:36:54.885Z,24.25
2018-01-14T04:39:24.304Z,28.27
2018-01-14T04:41:56.705Z,25.30
2018-01-14T04:44:34.285Z,27.95
2018-01-14T04:47:04.050Z,21.87
2018-01-14T04:49:32.229Z,24.58
2018-01-14T04:52:00.505Z,23.35
2018-01-14T04:54:29.455Z,26.17
2018-01-14T04:56:58.443Z,28.73
2018-01-14T04:59:26.601Z,26.75
2018-01-14T05:01:54.820Z,24.55
2018-01-14T05:04:22.990Z,24.70
2018-01-14T05:06:51.920Z,21.15
2018-01-14T05:09:20.082Z,24.50
2018-01-14T05:11:49.377Z,27.62
2018-01-14T05:14:17.533Z,32.22
2018-01-14T05:16:45.741Z,25.40
2018-01-14T05:19:13.902Z,29.63
2018-01-14T05:21:42.069Z,23.33
2018-01-14T05:24:10.234Z,24.30
2018-01-14T05:26:38.407Z,26.20
2018-01-14T05:29:06.572Z,27.70
2018-01-14T05:31:34.780Z,25.25
2018-01-14T05:34:03.611Z,25.90
2018-01-14T05:36:31.779Z,34.08
2018-01-14T05:38:59.942Z,28.73
2018-01-14T05:41:28.117Z,26.05
2018-01-14T05:43:56.325Z,26.90
2018-01-14T05:46:24.613Z,31.80
2018-01-14T05:48:52.764Z,30.75
2018-01-14T05:51:20.961Z,31.85
2018-01-14T05:53:49.125Z,27.85
2018-01-14T05:56:17.295Z,30.30
2018-01-14T05:58:45.461Z,28.92
2018-01-14T06:01:13.677Z,27.58
2018-01-14T06:03:41.826Z,31.25
2018-01-14T06:06:10.092Z,26.98
2018-01-14T06:08:39.092Z,31.48
2018-01-14T06:11:15.057Z,29.80
2018-01-14T06:13:44.130Z,28.33
2018-01-14T06:16:21.683Z,30.95
2018-01-14T06:18:49.847Z,29.10
2018-01-14T06:21:18.117Z,23.83
2018-01-14T06:23:46.292Z,24.77
2018-01-14T06:26:14.453Z,27.75
2018-01-14T06:28:42.622Z,25.65
2018-01-14T06:31:28.330Z,27.95
2018-01-14T06:33:57.483Z,27.55
2018-01-14T06:36:26.269Z,27.00
2018-01-14T06:38:54.849Z,32.53
2018-01-14T06:41:26.863Z,27.62
2018-01-14T06:43:55.856Z,28.05
2018-01-14T06:46:24.038Z,26.95
2018-01-14T06:48:52.758Z,23.92
2018-01-14T06:51:22.035Z,30.52
2018-01-14T06:53:50.235Z,24.37
2018-01-14T06:56:19.437Z,29.42
2018-01-14T06:58:47.602Z,27.20
2018-01-14T07:01:28.416Z,28.70
2018-01-14T07:03:57.019Z,27.87
2018-01-14T07:06:28.241Z,29.77
2018-01-14T07:08:56.399Z,26.05
2018-01-14T07:11:28.726Z,34.50
2018-01-14T07:13:57.565Z,29.10
2018-01-14T07:16:32.925Z,25.67
2018-01-14T07:19:01.081Z,29.10
2018-01-14T07:21:29.502Z,25.00
2018-01-14T07:23:57.722Z,26.67
2018-01-14T07:26:26.650Z,26.50
2018-01-14T07:28:54.898Z,25.23
2018-01-14T07:31:31.083Z,26.92
2018-01-14T07:33:59.322Z,25.48
2018-01-14T07:36:27.636Z,24.08
2018-01-14T07:38:55.799Z,28.48
2018-01-14T07:41:26.081Z,25.98
2018-01-14T07:43:54.242Z,26.52
2018-01-14T07:46:23.396Z,32.08
2018-01-14T07:48:51.544Z,27.62
2018-01-14T07:51:21.321Z,28.23
2018-01-14T07:53:49.664Z,28.12
2018-01-14T07:56:19.587Z,31.37
2018-01-14T07:58:47.752Z,27.37
2018-01-14T08:01:15.949Z,27.10
2018-01-14T08:03:44.130Z,24.50
2018-01-14T08:06:15.468Z,23.60
2018-01-14T08:08:43.670Z,25.58
2018-01-14T08:11:11.903Z,29.80
2018-01-14T08:13:40.671Z,28.15
2018-01-14T08:16:09.652Z,27.42
2018-01-14T08:18:38.557Z,30.25
2018-01-14T08:21:14.094Z,26.55
2018-01-14T08:23:43.998Z,29.20
2018-01-14T08:26:13.867Z,24.77
2018-01-14T08:28:42.150Z,24.73
2018-01-14T08:31:11.566Z,28.15
2018-01-14T08:33:39.771Z,27.55
2018-01-14T08:36:09.574Z,22.65
2018-01-14T08:38:38.396Z,24.73
2018-01-14T08:41:09.137Z,26.25
2018-01-14T08:43:37.381Z,25.75
2018-01-14T08:46:06.165Z,25.35
2018-01-14T08:48:34.323Z,22.20
2018-01-14T08:51:02.637Z,26.37
2018-01-14T08:53:31.615Z,25.23
2018-01-14T08:56:01.381Z,21.70
2018-01-14T08:58:30.589Z,22.48
2018-01-14T09:01:00.771Z,21.42
2018-01-14T09:03:29.175Z,25.55
2018-01-14T09:05:57.476Z,23.15
2018-01-14T09:08:29.610Z,26.12
2018-01-14T09:10:58.575Z,19.23
2018-01-14T09:13:27.548Z,22.80
2018-01-14T09:15:55.764Z,21.23
2018-01-14T09:18:25.786Z,21.50
2018-01-14T09:20:55.968Z,23.08
2018-01-14T09:23:25.800Z,25.35
2018-01-14T09:25:53.973Z,22.83
2018-01-14T09:28:23.042Z,22.08
2018-01-14T09:31:06.874Z,23.87
2018-01-14T09:33:35.223Z,20.17
2018-01-14T09:36:07.520Z,20.15
2018-01-14T09:38:38.237Z,20.50
2018-01-14T09:41:12.061Z,21.45
2018-01-14T09:43:41.232Z,21.25
2018-01-14T09:46:17.635Z,28.90
2018-01-14T09:48:50.400Z,25.20
2018-01-14T09:51:21.971Z,25.05
2018-01-14T09:53:50.647Z,23.77
2018-01-14T09:56:20.941Z,21.55
2018-01-14T09:58:50.081Z,20.10
2018-01-14T10:01:21.945Z,22.58
2018-01-14T10:03:50.114Z,20.58
2018-01-14T10:06:19.209Z,22.00
2018-01-14T10:08:48.726Z,22.05
2018-01-14T10:11:18.018Z,19.95
2018-01-14T10:13:46.370Z,25.30
2018-01-14T10:16:14.516Z,20.00
2018-01-14T10:18:42.744Z,19.75
2018-01-14T10:21:10.984Z,25.23
2018-01-14T10:23:39.595Z,21.95
2018-01-14T10:26:08.911Z,24.58
2018-01-14T10:28:37.851Z,22.50
2018-01-14T10:31:06.488Z,23.55
2018-01-14T10:33:34.719Z,20.73
2018-01-14T10:36:02.958Z,20.88
2018-01-14T10:38:31.129Z,25.65
2018-01-14T10:41:04.667Z,20.60
2018-01-14T10:43:34.009Z,18.80
2018-01-14T10:46:03.758Z,22.73
2018-01-14T10:48:32.134Z,22.17
2018-01-14T10:51:00.634Z,18.90
2018-01-14T10:53:30.041Z,19.23
2018-01-14T10:55:58.221Z,21.62
2018-01-14T10:58:30.805Z,20.42
2018-01-14T11:01:01.456Z,23.23
2018-01-14T11:03:29.648Z,19.65
2018-01-14T11:05:57.859Z,26.05
2018-01-14T11:08:26.602Z,21.85
2018-01-14T11:10:56.127Z,18.10
2018-01-14T11:13:25.806Z,20.88
2018-01-14T11:15:54.308Z,23.00
2018-01-14T11:18:23.332Z,20.73
2018-01-14T11:20:51.577Z,21.37
2018-01-14T11:23:20.782Z,21.05
2018-01-14T11:25:49.020Z,22.95
2018-01-14T11:28:17.209Z,21.20
2018-01-14T11:30:50.605Z,19.42
2018-01-14T11:33:19.505Z,27.83
2018-01-14T11:35:48.464Z,21.58
2018-01-14T11:38:18.089Z,20.88
2018-01-14T11:40:51.762Z,19.80
2018-01-14T11:43:23.845Z,21.95
2018-01-14T11:45:52.113Z,19.83
2018-01-14T11:48:20.428Z,20.08
2018-01-14T11:50:49.496Z,22.70
2018-01-14T11:53:18.535Z,21.65
2018-01-14T11:55:47.232Z,18.50
2018-01-14T11:58:15.398Z,17.92
2018-01-14T12:00:43.594Z,19.75
2018-01-14T12:03:11.756Z,20.75
2018-01-14T12:05:40.639Z,20.42
2018-01-14T12:08:09.552Z,20.52
2018-01-14T12:10:39.765Z,21.60
2018-01-14T12:13:08.661Z,19.80
2018-01-14T12:15:37.543Z,21.40
2018-01-14T12:18:05.718Z,18.92
2018-01-14T12:20:34.930Z,21.60
2018-01-14T12:23:03.137Z,18.50
2018-01-14T12:25:31.322Z,21.15
2018-01-14T12:27:59.539Z,22.65
2018-01-14T12:30:32.252Z,26.02
2018-01-14T12:33:06.814Z,19.08
2018-01-14T12:35:34.972Z,20.52
2018-01-14T12:38:05.151Z,19.45
2018-01-14T12:40:33.450Z,21.02
2018-01-14T12:43:01.597Z,22.15
2018-01-14T12:45:31.519Z,22.08
2018-01-14T12:47:59.690Z,21.08
2018-01-14T12:50:32.724Z,18.67
2018-01-14T12:53:08.945Z,22.37
2018-01-14T12:55:37.191Z,20.42
2018-01-14T12:58:06.162Z,23.75
2018-01-14T13:00:34.381Z,22.05
2018-01-14T13:03:04.029Z,22.87
2018-01-14T13:05:34.154Z,22.08
2018-01-14T13:08:02.425Z,22.17
2018-01-14T13:10:32.977Z,21.62
2018-01-14T13:13:01.170Z,21.62
2018-01-14T13:15:30.107Z,25.27
2018-01-14T13:18:01.202Z,18.85
2018-01-14T13:20:30.468Z,18.40
2018-01-14T13:23:00.368Z,26.55
2018-01-14T13:25:29.228Z,18.83
2018-01-14T13:27:58.923Z,22.13
2018-01-14T13:30:27.206Z,20.67
2018-01-14T13:32:56.408Z,18.08
2018-01-14T13:35:26.229Z,24.37
2018-01-14T13:37:55.322Z,19.52
2018-01-14T13:40:25.541Z,20.35
2018-01-14T13:42:54.933Z,19.12
2018-01-14T13:45:24.526Z,19.12
2018-01-14T13:47:52.693Z,20.00
2018-01-14T13:50:24.105Z,18.00
2018-01-14T13:52:53.223Z,21.58
2018-01-14T13:55:22.192Z,20.58
2018-01-14T13:57:50.361Z,18.48
2018-01-14T14:00:19.263Z,20.30
2018-01-14T14:02:49.793Z,19.30
2018-01-14T14:05:19.399Z,16.45
2018-01-14T14:07:49.677Z,19.75
2018-01-14T14:10:18.885Z,19.52
2018-01-14T14:12:48.247Z,20.62
2018-01-14T14:15:16.414Z,15.90
2018-01-14T14:17:44.619Z,18.62
2018-01-14T14:20:14.476Z,18.10
2018-01-14T14:22:42.657Z,21.27
2018-01-14T14:25:10.821Z,15.43
2018-01-14T14:27:38.974Z,17.83
2018-01-14T14:30:07.254Z,15.15
2018-01-14T14:32:35.428Z,17.65
2018-01-14T14:35:03.598Z,18.58
2018-01-14T14:37:32.144Z,17.95
2018-01-14T14:40:00.369Z,16.92
2018-01-14T14:42:28.546Z,22.80
2018-01-14T14:44:56.711Z,21.15
2018-01-14T14:47:26.815Z,21.05
2018-01-14T14:49:54.955Z,18.60
2018-01-14T14:52:23.124Z,14.50
2018-01-14T14:54:51.321Z,24.30
2018-01-14T14:57:19.486Z,14.40
2018-01-14T14:59:47.650Z,17.08
2018-01-14T15:02:16.410Z,17.35
2018-01-14T15:04:45.013Z,15.63
2018-01-14T15:07:13.193Z,19.52
2018-01-14T15:09:41.364Z,17.37
2018-01-14T15:12:09.542Z,18.12
2018-01-14T15:14:37.710Z,12.07
2018-01-14T15:17:05.887Z,38.55
2018-01-14T15:19:34.815Z,21.17
2018-01-14T15:22:02.980Z,19.35
2018-01-14T15:24:31.908Z,61.78
2018-01-14T15:27:00.521Z,48.38
2018-01-14T15:29:28.957Z,19.73
2018-01-14T15:31:57.877Z,14.40
2018-01-14T15:34:26.066Z,15.48
2018-01-14T15:36:54.238Z,17.12
2018-01-14T15:39:22.407Z,11.85
2018-01-14T15:41:51.567Z,17.73
2018-01-14T15:44:19.738Z,22.80
2018-01-14T15:46:47.910Z,23.05
2018-01-14T15:49:16.080Z,13.85
2018-01-14T15:51:52.122Z,15.07
2018-01-14T15:54:20.313Z,13.13
2018-01-14T15:56:48.513Z,17.52
2018-01-14T15:59:17.412Z,14.38
2018-01-14T16:01:49.289Z,13.73
2018-01-14T16:04:17.983Z,12.45
2018-01-14T16:06:49.902Z,12.93
2018-01-14T16:09:18.063Z,11.80
2018-01-14T16:11:50.146Z,12.88
2018-01-14T16:14:19.213Z,11.45
2018-01-14T16:16:47.356Z,12.65
2018-01-14T16:19:15.532Z,13.43
2018-01-14T16:21:49.504Z,13.50
2018-01-14T16:24:17.665Z,12.52
2018-01-14T16:26:46.904Z,13.88
2018-01-14T16:29:15.092Z,15.65
2018-01-14T16:31:43.326Z,14.75
2018-01-14T16:34:11.496Z,17.90
2018-01-14T16:36:39.673Z,18.20
2018-01-14T16:39:08.752Z,12.15
2018-01-14T16:41:37.081Z,20.80
2018-01-14T16:44:07.402Z,25.15
2018-01-14T16:46:37.477Z,17.05
2018-01-14T16:49:06.907Z,23.23
2018-01-14T16:51:37.289Z,27.37
2018-01-14T16:54:05.445Z,16.40
2018-01-14T16:56:35.256Z,16.15
2018-01-14T16:59:04.980Z,17.02
2018-01-14T17:01:34.879Z,20.08
2018-01-14T17:04:03.959Z,15.43
2018-01-14T17:06:34.417Z,16.27
2018-01-14T17:09:03.484Z,12.13
2018-01-14T17:11:32.737Z,16.48
2018-01-14T17:14:03.369Z,10.73
2018-01-14T17:16:32.227Z,15.13
2018-01-14T17:19:00.451Z,15.00
2018-01-14T17:21:30.753Z,18.62
2018-01-14T17:23:58.972Z,19.90
2018-01-14T17:26:28.364Z,15.98
2018-01-14T17:28:56.550Z,17.85
2018-01-14T17:31:24.822Z,22.08
2018-01-14T17:33:54.281Z,17.62
2018-01-14T17:36:22.461Z,28.85
2018-01-14T17:38:51.331Z,15.63
2018-01-14T17:41:19.546Z,11.55
2018-01-14T17:43:48.362Z,14.68
2018-01-14T17:46:16.518Z,14.55
2018-01-14T17:48:44.684Z,11.45
2018-01-14T17:51:13.072Z,16.80
2018-01-14T17:53:41.855Z,14.02
2018-01-14T17:56:11.165Z,14.23
2018-01-14T17:58:39.413Z,18.37
2018-01-14T18:01:07.584Z,18.65
2018-01-14T18:03:37.158Z,14.82
2018-01-14T18:06:06.452Z,12.80
2018-01-14T18:08:34.608Z,12.55
2018-01-14T18:11:02.768Z,16.40
2018-01-14T18:13:30.921Z,15.88
2018-01-14T18:15:59.156Z,12.40
2018-01-14T18:18:27.736Z,13.43
2018-01-14T18:21:00.720Z,21.40
2018-01-14T18:23:29.983Z,18.40
2018-01-14T18:25:58.855Z,16.27
2018-01-14T18:28:27.032Z,19.67
2018-01-14T18:30:56.626Z,16.40
2018-01-14T18:33:26.333Z,13.25
2018-01-14T18:35:56.795Z,16.27
2018-01-14T18:38:25.887Z,14.82
2018-01-14T18:40:54.204Z,15.77
2018-01-14T18:43:22.388Z,18.45
2018-01-14T18:46:15.382Z,15.10
2018-01-14T19:02:07.489Z,20.92
2018-01-14T19:04:37.649Z,23.75
2018-01-14T19:07:07.209Z,20.35
2018-01-14T19:09:38.695Z,12.60
2018-01-14T19:12:06.949Z,26.45
2018-01-14T19:14:35.961Z,31.83
2018-01-14T19:17:05.025Z,29.50
2018-01-14T19:19:35.206Z,18.58
2018-01-14T19:22:04.406Z,11.12
2018-01-14T19:24:34.205Z,15.27
2018-01-14T19:27:02.954Z,16.83
2018-01-14T19:29:31.276Z,15.65
2018-01-14T19:32:01.225Z,14.63
2018-01-14T19:34:30.330Z,18.02
2018-01-14T19:36:58.643Z,14.38
2018-01-14T19:39:28.430Z,19.98
2018-01-14T19:42:04.353Z,16.98
2018-01-14T19:44:32.635Z,19.67
2018-01-14T19:47:01.549Z,19.92
2018-01-14T19:49:29.826Z,18.80
2018-01-14T19:51:59.223Z,18.20
2018-01-14T19:54:28.405Z,24.58
2018-01-14T19:57:00.890Z,18.35
2018-01-14T19:59:30.416Z,11.27
2018-01-14T20:01:59.508Z,13.00
2018-01-14T20:04:28.003Z,12.45
2018-01-14T20:06:57.025Z,13.15
2018-01-14T20:09:25.480Z,16.58
2018-01-14T20:11:53.999Z,13.65
2018-01-14T20:14:22.490Z,17.85
2018-01-14T20:16:52.183Z,22.20
2018-01-14T20:19:21.441Z,19.45
2018-01-14T20:21:53.402Z,11.43
2018-01-14T20:24:23.238Z,11.77
2018-01-14T20:26:51.672Z,14.65
2018-01-14T20:29:20.239Z,13.48
2018-01-14T20:31:50.742Z,11.77
2018-01-14T20:34:19.755Z,12.98
2018-01-14T20:36:50.082Z,15.32
2018-01-14T20:39:19.355Z,13.27
2018-01-14T20:41:55.042Z,14.25
2018-01-14T20:44:43.190Z,14.27
2018-01-14T20:47:12.048Z,13.27
2018-01-14T20:49:40.411Z,10.88
2018-01-14T20:52:08.661Z,11.82
2018-01-14T20:54:36.813Z,10.00
2018-01-14T20:57:04.999Z,12.82
2018-01-14T20:59:33.156Z,12.75
2018-01-14T21:02:01.559Z,11.82
2018-01-14T21:04:30.487Z,10.50
2018-01-14T21:06:58.662Z,24.45
2018-01-14T21:09:26.813Z,8.43
2018-01-14T21:11:56.063Z,11.77
2018-01-14T21:14:24.234Z,11.68
2018-01-14T21:16:52.414Z,15.27
2018-01-14T21:19:20.584Z,11.60
2018-01-14T21:21:52.193Z,12.45
2018-01-14T21:24:20.453Z,15.32
2018-01-14T21:26:48.612Z,18.08
2018-01-14T21:29:17.551Z,13.10
2018-01-14T21:31:47.903Z,12.52
2018-01-14T21:34:16.055Z,12.80
2018-01-14T21:36:44.233Z,12.15
2018-01-14T21:39:12.403Z,15.07
2018-01-14T21:41:40.667Z,18.20
2018-01-14T21:44:08.864Z,16.48
2018-01-14T21:46:37.147Z,19.05
2018-01-14T21:49:06.114Z,21.58
2018-01-14T21:51:34.351Z,12.90
2018-01-14T21:54:03.216Z,17.45
2018-01-14T21:56:31.502Z,18.80
2018-01-14T21:58:59.653Z,13.48
2018-01-14T22:01:27.877Z,19.30
2018-01-14T22:03:56.055Z,15.20
2018-01-14T22:06:27.927Z,12.82
2018-01-14T22:08:56.096Z,16.15
2018-01-14T22:11:24.365Z,15.55
2018-01-14T22:13:54.483Z,22.35
2018-01-14T22:16:22.645Z,13.93
2018-01-14T22:18:51.567Z,15.00
2018-01-14T22:21:19.825Z,12.80
2018-01-14T22:23:48.006Z,14.02
2018-01-14T22:26:16.222Z,16.87
2018-01-14T22:28:44.370Z,13.98
2018-01-14T22:31:15.997Z,19.15
2018-01-14T22:33:44.162Z,13.55
2018-01-14T22:36:16.289Z,13.40
2018-01-14T22:38:44.684Z,17.95
2018-01-14T22:41:18.545Z,17.60
2018-01-14T22:43:46.730Z,15.65
2018-01-14T22:46:15.695Z,12.25
2018-01-14T22:48:43.860Z,16.30
2018-01-14T22:51:13.317Z,18.75
2018-01-14T22:53:41.495Z,18.23
2018-01-14T22:56:09.676Z,14.02
2018-01-14T22:58:37.839Z,16.90
2018-01-14T23:01:05.989Z,11.85
2018-01-14T23:03:34.158Z,11.65
2018-01-14T23:06:03.692Z,12.65
2018-01-14T23:08:32.661Z,14.75
2018-01-14T23:11:00.918Z,12.25
2018-01-14T23:13:30.101Z,15.77
2018-01-14T23:15:59.035Z,15.02
2018-01-14T23:18:27.197Z,12.82
2018-01-14T23:20:56.547Z,16.77
2018-01-14T23:23:24.717Z,15.02
2018-01-14T23:25:52.879Z,14.48
2018-01-14T23:28:21.048Z,15.32
2018-01-14T23:30:50.280Z,13.07
2018-01-14T23:33:18.573Z,16.27
2018-01-14T23:35:47.505Z,18.23
2018-01-14T23:38:15.673Z,15.23
2018-01-14T23:40:44.945Z,15.07
2018-01-14T23:43:13.102Z,12.07
2018-01-14T23:45:42.245Z,13.55
2018-01-14T23:48:10.569Z,12.82
2018-01-14T23:50:39.688Z,13.70
2018-01-14T23:53:07.853Z,15.30
2018-01-14T23:55:36.009Z,13.27
2018-01-14T23:58:04.174Z,15.32
